weather.gov     
National Weather Service

Terminal Aerodrome Forecast
NWS Homepage
This page is being discontinued on March 12, 2014.
The same data is available at this site. Please update your bookmarks.
Thank you, and we apologize for the inconvenience.
Please send an email to SR-SRH.Webmaster@noaa.gov with any concerns.


Current Version
Previous Version:    01  02  03  04  05  06  07  08  09  10  11  12  13  14  15  16  17  18  19  20  21  22  23  
[Printable]
305
FTUS41 KRNK 231139
TAFROA
TAF
KROA 231139Z 2312/2412 VRB03KT P6SM SCT250
     FM231500 20005KT P6SM SCT050 OVC100
     FM231900 14006KT P6SM -RA OVC025
     FM232200 14010KT 4SM RA BR OVC012
      TEMPO 2402/2406 1SM +RA BR OVC007
     FM240900 22006KT 5SM BR OVC015=




305
FTUS41 KRNK 231139
TAFROA
TAF
KROA 231139Z 2312/2412 VRB03KT P6SM SCT250
     FM231500 20005KT P6SM SCT050 OVC100
     FM231900 14006KT P6SM -RA OVC025
     FM232200 14010KT 4SM RA BR OVC012
      TEMPO 2402/2406 1SM +RA BR OVC007
     FM240900 22006KT 5SM BR OVC015=


U.S. Dept. of Commerce
NOAA National Weather Service
1325 East West Highway
Silver Spring, MD 20910
E-mail: w-nws.webmaster@noaa.gov
Page last modified: May 16, 2007
NATIONAL WEATHER SERVICE: for Safety, for Work, for Fun - FOR LIFE